sensor_id;sensor_type;location;lat;lon;timestamp;temperature;humidity
11647;DHT22;5880;52.342;9.662;2022-12-13T00:01:51;-2.10;65.00
11647;DHT22;5880;52.342;9.662;2022-12-13T00:04:19;-2.10;65.10
11647;DHT22;5880;52.342;9.662;2022-12-13T00:06:46;-2.10;65.00
11647;DHT22;5880;52.342;9.662;2022-12-13T00:09:17;-2.10;65.00
11647;DHT22;5880;52.342;9.662;2022-12-13T00:11:44;-2.10;65.00
11647;DHT22;5880;52.342;9.662;2022-12-13T00:14:10;-2.10;65.00
11647;DHT22;5880;52.342;9.662;2022-12-13T00:16:39;-2.10;64.90
11647;DHT22;5880;52.342;9.662;2022-12-13T00:19:04;-2.10;64.90
11647;DHT22;5880;52.342;9.662;2022-12-13T00:21:31;-2.10;65.00
11647;DHT22;5880;52.342;9.662;2022-12-13T00:23:59;-2.10;65.00
11647;DHT22;5880;52.342;9.662;2022-12-13T00:26:28;-2.10;64.90
11647;DHT22;5880;52.342;9.662;2022-12-13T00:29:06;-2.10;64.90
11647;DHT22;5880;52.342;9.662;2022-12-13T00:31:33;-2.10;64.90
11647;DHT22;5880;52.342;9.662;2022-12-13T00:33:59;-2.10;65.00
11647;DHT22;5880;52.342;9.662;2022-12-13T00:36:25;-2.10;65.10
11647;DHT22;5880;52.342;9.662;2022-12-13T00:38:51;-1.90;65.20
11647;DHT22;5880;52.342;9.662;2022-12-13T00:41:26;-2.10;65.10
11647;DHT22;5880;52.342;9.662;2022-12-13T00:43:54;-2.10;65.00
11647;DHT22;5880;52.342;9.662;2022-12-13T00:46:21;-2.10;65.00
11647;DHT22;5880;52.342;9.662;2022-12-13T00:48:52;-2.10;65.00
11647;DHT22;5880;52.342;9.662;2022-12-13T00:51:20;-2.10;65.00
11647;DHT22;5880;52.342;9.662;2022-12-13T00:53:47;-2.10;65.00
11647;DHT22;5880;52.342;9.662;2022-12-13T00:56:19;-2.10;65.00
11647;DHT22;5880;52.342;9.662;2022-12-13T00:58:47;-2.10;65.00
11647;DHT22;5880;52.342;9.662;2022-12-13T01:01:16;-2.10;64.90
11647;DHT22;5880;52.342;9.662;2022-12-13T01:03:44;-2.10;64.90
11647;DHT22;5880;52.342;9.662;2022-12-13T01:06:17;-2.10;64.90
11647;DHT22;5880;52.342;9.662;2022-12-13T01:08:45;-2.10;64.90
11647;DHT22;5880;52.342;9.662;2022-12-13T01:11:13;-2.10;64.90
11647;DHT22;5880;52.342;9.662;2022-12-13T01:13:40;-2.10;64.90
11647;DHT22;5880;52.342;9.662;2022-12-13T01:16:07;-2.10;64.80
11647;DHT22;5880;52.342;9.662;2022-12-13T01:18:35;-2.20;64.60
11647;DHT22;5880;52.342;9.662;2022-12-13T01:23:33;-2.20;64.50
11647;DHT22;5880;52.342;9.662;2022-12-13T01:26:03;-2.20;64.50
11647;DHT22;5880;52.342;9.662;2022-12-13T01:28:31;-2.20;64.50
11647;DHT22;5880;52.342;9.662;2022-12-13T01:30:59;-2.20;64.60
11647;DHT22;5880;52.342;9.662;2022-12-13T01:33:27;-2.20;64.50
11647;DHT22;5880;52.342;9.662;2022-12-13T01:35:54;-2.30;64.60
11647;DHT22;5880;52.342;9.662;2022-12-13T01:38:19;-2.20;64.60
11647;DHT22;5880;52.342;9.662;2022-12-13T01:40:50;-2.30;64.70
11647;DHT22;5880;52.342;9.662;2022-12-13T01:43:24;-2.30;64.60
11647;DHT22;5880;52.342;9.662;2022-12-13T01:45:52;-2.30;64.60
11647;DHT22;5880;52.342;9.662;2022-12-13T01:48:25;-2.30;64.50
11647;DHT22;5880;52.342;9.662;2022-12-13T01:50:59;-2.30;64.50
11647;DHT22;5880;52.342;9.662;2022-12-13T01:53:30;-2.30;64.40
11647;DHT22;5880;52.342;9.662;2022-12-13T01:56:07;-2.30;64.50
11647;DHT22;5880;52.342;9.662;2022-12-13T01:58:38;-2.30;64.50
11647;DHT22;5880;52.342;9.662;2022-12-13T02:01:05;-2.40;64.50
11647;DHT22;5880;52.342;9.662;2022-12-13T02:03:32;-2.40;64.50
11647;DHT22;5880;52.342;9.662;2022-12-13T02:06:08;-2.30;64.60
11647;DHT22;5880;52.342;9.662;2022-12-13T02:08:43;-2.40;64.40
11647;DHT22;5880;52.342;9.662;2022-12-13T02:11:11;-2.40;64.40
11647;DHT22;5880;52.342;9.662;2022-12-13T02:13:37;-2.40;64.30
11647;DHT22;5880;52.342;9.662;2022-12-13T02:16:28;-2.40;64.30
11647;DHT22;5880;52.342;9.662;2022-12-13T02:31:15;-2.40;64.70
11647;DHT22;5880;52.342;9.662;2022-12-13T02:41:56;-2.40;65.10
11647;DHT22;5880;52.342;9.662;2022-12-13T02:44:30;-2.30;65.20
11647;DHT22;5880;52.342;9.662;2022-12-13T02:47:09;-2.30;65.30
11647;DHT22;5880;52.342;9.662;2022-12-13T02:49:42;-2.30;65.20
11647;DHT22;5880;52.342;9.662;2022-12-13T02:52:16;-2.30;65.20
11647;DHT22;5880;52.342;9.662;2022-12-13T02:54:46;-2.20;65.20
11647;DHT22;5880;52.342;9.662;2022-12-13T03:00:11;-2.20;65.20
11647;DHT22;5880;52.342;9.662;2022-12-13T03:09:11;-2.10;65.30
11647;DHT22;5880;52.342;9.662;2022-12-13T03:12:08;-2.10;65.30
11647;DHT22;5880;52.342;9.662;2022-12-13T03:15:26;-2.10;65.10
11647;DHT22;5880;52.342;9.662;2022-12-13T03:17:59;-2.10;65.00
11647;DHT22;5880;52.342;9.662;2022-12-13T03:20:30;-2.10;65.10
11647;DHT22;5880;52.342;9.662;2022-12-13T03:22:57;-2.10;65.10
11647;DHT22;5880;52.342;9.662;2022-12-13T03:25:26;-2.10;65.10
11647;DHT22;5880;52.342;9.662;2022-12-13T03:27:54;-2.10;65.10
11647;DHT22;5880;52.342;9.662;2022-12-13T03:30:20;-2.10;65.10
11647;DHT22;5880;52.342;9.662;2022-12-13T03:32:45;-2.10;65.00
11647;DHT22;5880;52.342;9.662;2022-12-13T03:35:11;-2.20;64.80
11647;DHT22;5880;52.342;9.662;2022-12-13T03:37:37;-2.20;64.70
11647;DHT22;5880;52.342;9.662;2022-12-13T03:40:03;-2.20;64.70
11647;DHT22;5880;52.342;9.662;2022-12-13T03:42:29;-2.20;64.70
11647;DHT22;5880;52.342;9.662;2022-12-13T03:44:55;-2.20;64.60
11647;DHT22;5880;52.342;9.662;2022-12-13T03:47:20;-2.20;64.60
11647;DHT22;5880;52.342;9.662;2022-12-13T03:49:46;-2.20;64.60
11647;DHT22;5880;52.342;9.662;2022-12-13T03:52:12;-2.20;64.50
11647;DHT22;5880;52.342;9.662;2022-12-13T03:54:37;-2.30;64.60
11647;DHT22;5880;52.342;9.662;2022-12-13T03:57:03;-2.30;64.60
11647;DHT22;5880;52.342;9.662;2022-12-13T03:59:29;-2.30;64.60
11647;DHT22;5880;52.342;9.662;2022-12-13T04:01:54;-2.30;64.50
11647;DHT22;5880;52.342;9.662;2022-12-13T04:04:20;-2.30;64.40
11647;DHT22;5880;52.342;9.662;2022-12-13T04:06:46;-2.40;64.20
11647;DHT22;5880;52.342;9.662;2022-12-13T04:09:11;-2.40;64.10
11647;DHT22;5880;52.342;9.662;2022-12-13T04:11:37;-2.40;64.10
11647;DHT22;5880;52.342;9.662;2022-12-13T04:14:21;-2.40;64.20
11647;DHT22;5880;52.342;9.662;2022-12-13T04:16:47;-2.50;64.30
11647;DHT22;5880;52.342;9.662;2022-12-13T04:19:12;-2.10;64.40
11647;DHT22;5880;52.342;9.662;2022-12-13T04:21:38;-2.50;64.30
11647;DHT22;5880;52.342;9.662;2022-12-13T04:24:04;-2.50;64.30
11647;DHT22;5880;52.342;9.662;2022-12-13T04:26:30;-2.60;64.20
11647;DHT22;5880;52.342;9.662;2022-12-13T04:28:55;-2.60;64.30
11647;DHT22;5880;52.342;9.662;2022-12-13T04:31:21;-2.60;64.40
11647;DHT22;5880;52.342;9.662;2022-12-13T04:33:51;-2.60;64.50
11647;DHT22;5880;52.342;9.662;2022-12-13T04:36:17;-2.60;64.50
11647;DHT22;5880;52.342;9.662;2022-12-13T04:38:45;-2.60;64.40
11647;DHT22;5880;52.342;9.662;2022-12-13T04:41:16;-2.60;64.50
11647;DHT22;5880;52.342;9.662;2022-12-13T04:43:43;-2.60;64.40
11647;DHT22;5880;52.342;9.662;2022-12-13T04:46:15;-2.60;64.50
11647;DHT22;5880;52.342;9.662;2022-12-13T04:48:40;-2.60;64.50
11647;DHT22;5880;52.342;9.662;2022-12-13T04:51:06;-2.60;64.60
11647;DHT22;5880;52.342;9.662;2022-12-13T04:53:32;-2.60;64.60
11647;DHT22;5880;52.342;9.662;2022-12-13T04:55:58;-2.60;64.60
11647;DHT22;5880;52.342;9.662;2022-12-13T04:58:24;-2.60;64.60
11647;DHT22;5880;52.342;9.662;2022-12-13T05:00:50;-2.60;64.60
11647;DHT22;5880;52.342;9.662;2022-12-13T05:03:15;-2.60;64.60
11647;DHT22;5880;52.342;9.662;2022-12-13T05:05:41;-2.60;64.50
11647;DHT22;5880;52.342;9.662;2022-12-13T05:08:07;-2.60;64.50
11647;DHT22;5880;52.342;9.662;2022-12-13T05:10:33;-2.60;65.20
11647;DHT22;5880;52.342;9.662;2022-12-13T05:13:00;-2.60;64.50
11647;DHT22;5880;52.342;9.662;2022-12-13T05:15:27;-2.60;64.40
11647;DHT22;5880;52.342;9.662;2022-12-13T05:17:55;-2.70;64.50
11647;DHT22;5880;52.342;9.662;2022-12-13T05:20:25;-2.30;64.70
11647;DHT22;5880;52.342;9.662;2022-12-13T05:22:50;-2.70;64.50
11647;DHT22;5880;52.342;9.662;2022-12-13T05:25:16;-2.70;64.40
11647;DHT22;5880;52.342;9.662;2022-12-13T05:27:42;-2.60;64.30
11647;DHT22;5880;52.342;9.662;2022-12-13T05:30:08;-2.70;64.30
11647;DHT22;5880;52.342;9.662;2022-12-13T05:32:35;-2.70;64.30
11647;DHT22;5880;52.342;9.662;2022-12-13T05:35:03;-2.70;64.30
11647;DHT22;5880;52.342;9.662;2022-12-13T05:37:29;-2.70;64.50
11647;DHT22;5880;52.342;9.662;2022-12-13T05:39:54;-2.80;64.50
11647;DHT22;5880;52.342;9.662;2022-12-13T05:42:20;-2.80;64.50
11647;DHT22;5880;52.342;9.662;2022-12-13T05:44:46;-2.70;64.70
11647;DHT22;5880;52.342;9.662;2022-12-13T05:47:11;-2.70;64.70
11647;DHT22;5880;52.342;9.662;2022-12-13T05:49:37;-2.70;64.70
11647;DHT22;5880;52.342;9.662;2022-12-13T05:52:03;-2.70;64.60
11647;DHT22;5880;52.342;9.662;2022-12-13T05:54:28;-2.80;64.30
11647;DHT22;5880;52.342;9.662;2022-12-13T05:56:54;-2.80;64.40
11647;DHT22;5880;52.342;9.662;2022-12-13T05:59:20;-2.80;64.40
11647;DHT22;5880;52.342;9.662;2022-12-13T06:01:46;-2.80;65.20
11647;DHT22;5880;52.342;9.662;2022-12-13T06:04:12;-2.80;64.50
11647;DHT22;5880;52.342;9.662;2022-12-13T06:06:37;-2.80;64.40
11647;DHT22;5880;52.342;9.662;2022-12-13T06:09:03;-2.80;64.40
11647;DHT22;5880;52.342;9.662;2022-12-13T06:11:29;-2.80;64.50
11647;DHT22;5880;52.342;9.662;2022-12-13T06:13:54;-2.80;64.50
11647;DHT22;5880;52.342;9.662;2022-12-13T06:16:20;-2.80;64.60
11647;DHT22;5880;52.342;9.662;2022-12-13T06:18:46;-2.80;64.70
11647;DHT22;5880;52.342;9.662;2022-12-13T06:21:11;-2.80;64.80
11647;DHT22;5880;52.342;9.662;2022-12-13T06:23:37;-2.80;64.90
11647;DHT22;5880;52.342;9.662;2022-12-13T06:26:04;-2.80;64.90
11647;DHT22;5880;52.342;9.662;2022-12-13T06:28:31;-2.70;65.10
11647;DHT22;5880;52.342;9.662;2022-12-13T06:31:01;-2.80;65.00
11647;DHT22;5880;52.342;9.662;2022-12-13T06:33:28;-2.70;65.10
11647;DHT22;5880;52.342;9.662;2022-12-13T06:35:57;-2.70;65.00
11647;DHT22;5880;52.342;9.662;2022-12-13T06:38:24;-2.70;65.10
11647;DHT22;5880;52.342;9.662;2022-12-13T06:40:50;-2.70;65.10
11647;DHT22;5880;52.342;9.662;2022-12-13T06:43:17;-2.70;64.90
11647;DHT22;5880;52.342;9.662;2022-12-13T06:45:46;-2.60;65.00
11647;DHT22;5880;52.342;9.662;2022-12-13T06:48:12;-2.60;65.00
11647;DHT22;5880;52.342;9.662;2022-12-13T06:50:37;-2.60;65.90
11647;DHT22;5880;52.342;9.662;2022-12-13T06:53:03;-2.60;65.20
11647;DHT22;5880;52.342;9.662;2022-12-13T06:55:28;-2.60;65.20
11647;DHT22;5880;52.342;9.662;2022-12-13T06:57:56;-2.60;65.20
11647;DHT22;5880;52.342;9.662;2022-12-13T07:00:22;-2.50;65.20
11647;DHT22;5880;52.342;9.662;2022-12-13T07:02:53;-2.50;65.10
11647;DHT22;5880;52.342;9.662;2022-12-13T07:05:19;-2.50;65.10
11647;DHT22;5880;52.342;9.662;2022-12-13T07:07:45;-2.50;65.10
11647;DHT22;5880;52.342;9.662;2022-12-13T07:10:10;-2.50;65.10
11647;DHT22;5880;52.342;9.662;2022-12-13T07:12:36;-2.50;65.20
11647;DHT22;5880;52.342;9.662;2022-12-13T07:15:02;-2.50;65.10
11647;DHT22;5880;52.342;9.662;2022-12-13T07:17:28;-2.50;65.00
11647;DHT22;5880;52.342;9.662;2022-12-13T07:19:53;-2.50;65.00
11647;DHT22;5880;52.342;9.662;2022-12-13T07:22:19;-2.50;64.90
11647;DHT22;5880;52.342;9.662;2022-12-13T07:24:45;-2.50;64.90
11647;DHT22;5880;52.342;9.662;2022-12-13T07:27:11;-2.50;64.90
11647;DHT22;5880;52.342;9.662;2022-12-13T07:29:36;-2.50;64.90
11647;DHT22;5880;52.342;9.662;2022-12-13T07:32:02;-2.50;64.90
11647;DHT22;5880;52.342;9.662;2022-12-13T07:34:28;-2.50;64.80
11647;DHT22;5880;52.342;9.662;2022-12-13T07:36:54;-2.50;64.80
11647;DHT22;5880;52.342;9.662;2022-12-13T07:39:23;-2.50;64.80
11647;DHT22;5880;52.342;9.662;2022-12-13T07:41:55;-2.50;64.80
11647;DHT22;5880;52.342;9.662;2022-12-13T07:44:21;-2.50;64.80
11647;DHT22;5880;52.342;9.662;2022-12-13T07:46:48;-2.50;64.80
11647;DHT22;5880;52.342;9.662;2022-12-13T07:49:14;-2.50;64.80
11647;DHT22;5880;52.342;9.662;2022-12-13T07:51:39;-2.50;64.80
11647;DHT22;5880;52.342;9.662;2022-12-13T07:54:05;-2.50;64.80
11647;DHT22;5880;52.342;9.662;2022-12-13T07:56:33;-2.50;64.80
11647;DHT22;5880;52.342;9.662;2022-12-13T07:58:59;-2.50;64.90
11647;DHT22;5880;52.342;9.662;2022-12-13T08:01:25;-2.50;64.90
11647;DHT22;5880;52.342;9.662;2022-12-13T08:03:50;-2.50;65.00
11647;DHT22;5880;52.342;9.662;2022-12-13T08:06:16;-2.50;65.00
11647;DHT22;5880;52.342;9.662;2022-12-13T08:08:44;-2.50;65.80
11647;DHT22;5880;52.342;9.662;2022-12-13T08:11:13;-2.50;65.10
11647;DHT22;5880;52.342;9.662;2022-12-13T08:13:41;-2.50;65.30
11647;DHT22;5880;52.342;9.662;2022-12-13T08:16:10;-2.50;65.50
11647;DHT22;5880;52.342;9.662;2022-12-13T08:18:37;-2.40;65.60
11647;DHT22;5880;52.342;9.662;2022-12-13T08:21:06;-2.40;65.70
11647;DHT22;5880;52.342;9.662;2022-12-13T08:23:33;-2.40;65.80
11647;DHT22;5880;52.342;9.662;2022-12-13T08:26:01;-2.30;65.90
11647;DHT22;5880;52.342;9.662;2022-12-13T08:28:29;-2.30;66.00
11647;DHT22;5880;52.342;9.662;2022-12-13T08:31:04;-2.30;66.00
11647;DHT22;5880;52.342;9.662;2022-12-13T08:33:33;-2.20;66.00
11647;DHT22;5880;52.342;9.662;2022-12-13T08:36:09;-2.20;66.00
11647;DHT22;5880;52.342;9.662;2022-12-13T08:38:36;-2.10;66.10
11647;DHT22;5880;52.342;9.662;2022-12-13T08:41:03;-2.10;66.10
11647;DHT22;5880;52.342;9.662;2022-12-13T08:43:29;-2.10;66.10
11647;DHT22;5880;52.342;9.662;2022-12-13T08:45:55;-2.00;66.10
11647;DHT22;5880;52.342;9.662;2022-12-13T08:48:21;-2.00;66.10
11647;DHT22;5880;52.342;9.662;2022-12-13T08:50:46;-2.00;66.10
11647;DHT22;5880;52.342;9.662;2022-12-13T08:53:12;-2.00;66.20
11647;DHT22;5880;52.342;9.662;2022-12-13T08:55:38;-1.90;66.30
11647;DHT22;5880;52.342;9.662;2022-12-13T08:58:04;-1.90;66.40
11647;DHT22;5880;52.342;9.662;2022-12-13T09:00:34;-1.90;66.40
11647;DHT22;5880;52.342;9.662;2022-12-13T09:03:01;-1.80;66.40
11647;DHT22;5880;52.342;9.662;2022-12-13T09:05:31;-1.80;66.40
11647;DHT22;5880;52.342;9.662;2022-12-13T09:07:58;-1.70;66.60
11647;DHT22;5880;52.342;9.662;2022-12-13T09:10:27;-1.70;66.60
11647;DHT22;5880;52.342;9.662;2022-12-13T09:12:55;-1.60;66.60
11647;DHT22;5880;52.342;9.662;2022-12-13T09:15:30;-1.60;66.70
11647;DHT22;5880;52.342;9.662;2022-12-13T09:17:57;-1.60;66.70
11647;DHT22;5880;52.342;9.662;2022-12-13T09:20:23;-1.50;66.80
11647;DHT22;5880;52.342;9.662;2022-12-13T09:22:49;-1.50;66.80
11647;DHT22;5880;52.342;9.662;2022-12-13T09:25:15;-1.40;66.90
11647;DHT22;5880;52.342;9.662;2022-12-13T09:27:41;-1.40;66.90
11647;DHT22;5880;52.342;9.662;2022-12-13T09:30:08;-1.30;67.00
11647;DHT22;5880;52.342;9.662;2022-12-13T09:32:41;-1.30;67.10
11647;DHT22;5880;52.342;9.662;2022-12-13T09:35:08;-1.30;67.00
11647;DHT22;5880;52.342;9.662;2022-12-13T09:37:34;-1.20;67.00
11647;DHT22;5880;52.342;9.662;2022-12-13T09:39:59;-1.20;67.00
11647;DHT22;5880;52.342;9.662;2022-12-13T09:42:27;-1.20;67.10
11647;DHT22;5880;52.342;9.662;2022-12-13T09:45:04;-1.10;67.20
11647;DHT22;5880;52.342;9.662;2022-12-13T09:47:34;-1.00;67.20
11647;DHT22;5880;52.342;9.662;2022-12-13T09:50:11;-0.40;67.60
11647;DHT22;5880;52.342;9.662;2022-12-13T09:52:41;-0.90;67.30
11647;DHT22;5880;52.342;9.662;2022-12-13T09:55:20;-0.90;67.40
11647;DHT22;5880;52.342;9.662;2022-12-13T09:57:49;-0.80;67.40
11647;DHT22;5880;52.342;9.662;2022-12-13T10:00:20;-0.80;67.40
11647;DHT22;5880;52.342;9.662;2022-12-13T10:02:53;-0.70;67.50
11647;DHT22;5880;52.342;9.662;2022-12-13T10:08:06;-0.60;67.60
11647;DHT22;5880;52.342;9.662;2022-12-13T10:10:36;-0.60;67.60
11647;DHT22;5880;52.342;9.662;2022-12-13T10:13:23;-0.50;67.70
11647;DHT22;5880;52.342;9.662;2022-12-13T10:16:02;-0.50;67.70
11647;DHT22;5880;52.342;9.662;2022-12-13T10:18:35;-0.40;67.70
11647;DHT22;5880;52.342;9.662;2022-12-13T10:21:08;-0.40;67.70
11647;DHT22;5880;52.342;9.662;2022-12-13T10:23:37;-0.30;67.80
11647;DHT22;5880;52.342;9.662;2022-12-13T10:26:08;0.40;68.10
11647;DHT22;5880;52.342;9.662;2022-12-13T10:28:36;-0.20;67.80
11647;DHT22;5880;52.342;9.662;2022-12-13T10:31:04;-0.20;67.80
11647;DHT22;5880;52.342;9.662;2022-12-13T10:33:34;-0.10;67.90
11647;DHT22;5880;52.342;9.662;2022-12-13T10:36:14;-0.10;67.90
11647;DHT22;5880;52.342;9.662;2022-12-13T10:38:54;0.00;68.00
11647;DHT22;5880;52.342;9.662;2022-12-13T10:41:37;0.10;68.00
11647;DHT22;5880;52.342;9.662;2022-12-13T10:44:10;0.00;67.90
11647;DHT22;5880;52.342;9.662;2022-12-13T10:47:28;0.10;68.00
11647;DHT22;5880;52.342;9.662;2022-12-13T10:49:51;0.20;68.00
11647;DHT22;5880;52.342;9.662;2022-12-13T10:52:29;0.30;68.10
11647;DHT22;5880;52.342;9.662;2022-12-13T10:55:00;0.30;68.00
11647;DHT22;5880;52.342;9.662;2022-12-13T10:57:29;0.30;68.10
11647;DHT22;5880;52.342;9.662;2022-12-13T10:59:56;0.40;68.10
11647;DHT22;5880;52.342;9.662;2022-12-13T11:02:37;0.40;68.10
11647;DHT22;5880;52.342;9.662;2022-12-13T11:05:28;0.50;68.10
11647;DHT22;5880;52.342;9.662;2022-12-13T11:08:13;0.50;68.00
11647;DHT22;5880;52.342;9.662;2022-12-13T11:10:56;0.60;68.00
11647;DHT22;5880;52.342;9.662;2022-12-13T11:13:33;0.60;67.90
11647;DHT22;5880;52.342;9.662;2022-12-13T11:16:04;0.60;67.80
11647;DHT22;5880;52.342;9.662;2022-12-13T11:18:50;0.60;67.70
11647;DHT22;5880;52.342;9.662;2022-12-13T11:21:27;0.70;67.80
11647;DHT22;5880;52.342;9.662;2022-12-13T11:23:57;0.70;67.60
11647;DHT22;5880;52.342;9.662;2022-12-13T11:26:26;0.70;67.60
11647;DHT22;5880;52.342;9.662;2022-12-13T11:34:29;0.80;67.60
11647;DHT22;5880;52.342;9.662;2022-12-13T11:40:26;0.80;67.60
11647;DHT22;5880;52.342;9.662;2022-12-13T11:43:07;0.80;67.70
11647;DHT22;5880;52.342;9.662;2022-12-13T11:45:47;0.80;67.70
11647;DHT22;5880;52.342;9.662;2022-12-13T11:48:24;0.90;67.80
11647;DHT22;5880;52.342;9.662;2022-12-13T11:51:20;0.90;67.80
11647;DHT22;5880;52.342;9.662;2022-12-13T11:54:00;0.90;67.80
11647;DHT22;5880;52.342;9.662;2022-12-13T11:56:36;0.80;67.70
11647;DHT22;5880;52.342;9.662;2022-12-13T11:59:31;1.00;67.70
11647;DHT22;5880;52.342;9.662;2022-12-13T12:04:56;1.00;67.50
11647;DHT22;5880;52.342;9.662;2022-12-13T12:07:38;1.00;67.40
11647;DHT22;5880;52.342;9.662;2022-12-13T12:13:23;1.00;67.40
11647;DHT22;5880;52.342;9.662;2022-12-13T12:16:07;1.00;67.30
11647;DHT22;5880;52.342;9.662;2022-12-13T12:18:39;1.00;67.30
11647;DHT22;5880;52.342;9.662;2022-12-13T12:21:27;1.00;67.70
11647;DHT22;5880;52.342;9.662;2022-12-13T12:27:10;1.00;67.40
11647;DHT22;5880;52.342;9.662;2022-12-13T12:30:10;1.00;67.50
11647;DHT22;5880;52.342;9.662;2022-12-13T12:45:00;1.10;67.80
11647;DHT22;5880;52.342;9.662;2022-12-13T12:51:04;1.10;67.90
11647;DHT22;5880;52.342;9.662;2022-12-13T12:54:06;1.10;67.80
11647;DHT22;5880;52.342;9.662;2022-12-13T12:59:40;1.20;67.90
11647;DHT22;5880;52.342;9.662;2022-12-13T13:02:42;1.20;67.90
11647;DHT22;5880;52.342;9.662;2022-12-13T13:05:17;1.20;67.90
11647;DHT22;5880;52.342;9.662;2022-12-13T13:08:01;1.30;68.00
11647;DHT22;5880;52.342;9.662;2022-12-13T13:10:35;1.30;67.80
11647;DHT22;5880;52.342;9.662;2022-12-13T13:13:03;1.40;68.00
11647;DHT22;5880;52.342;9.662;2022-12-13T13:17:58;1.40;68.00
11647;DHT22;5880;52.342;9.662;2022-12-13T13:20:26;1.40;68.00
11647;DHT22;5880;52.342;9.662;2022-12-13T13:22:54;1.40;67.90
11647;DHT22;5880;52.342;9.662;2022-12-13T13:25:24;1.50;68.10
11647;DHT22;5880;52.342;9.662;2022-12-13T13:28:13;1.50;68.10
11647;DHT22;5880;52.342;9.662;2022-12-13T13:31:06;1.50;67.90
11647;DHT22;5880;52.342;9.662;2022-12-13T13:33:47;1.60;67.70
11647;DHT22;5880;52.342;9.662;2022-12-13T13:36:50;1.60;67.70
11647;DHT22;5880;52.342;9.662;2022-12-13T13:39:37;1.60;67.60
11647;DHT22;5880;52.342;9.662;2022-12-13T13:42:22;1.70;67.70
11647;DHT22;5880;52.342;9.662;2022-12-13T13:50:04;1.70;67.70
11647;DHT22;5880;52.342;9.662;2022-12-13T13:53:26;1.70;67.50
11647;DHT22;5880;52.342;9.662;2022-12-13T14:02:47;1.70;67.50
11647;DHT22;5880;52.342;9.662;2022-12-13T14:06:00;1.70;67.20
11647;DHT22;5880;52.342;9.662;2022-12-13T14:18:38;1.60;66.70
11647;DHT22;5880;52.342;9.662;2022-12-13T14:24:49;1.60;66.70
11647;DHT22;5880;52.342;9.662;2022-12-13T14:30:18;1.50;66.80
11647;DHT22;5880;52.342;9.662;2022-12-13T14:32:47;1.50;66.90
11647;DHT22;5880;52.342;9.662;2022-12-13T14:35:28;1.50;67.00
11647;DHT22;5880;52.342;9.662;2022-12-13T14:38:04;1.40;66.80
11647;DHT22;5880;52.342;9.662;2022-12-13T14:40:50;1.40;66.80
11647;DHT22;5880;52.342;9.662;2022-12-13T14:43:36;1.40;66.70
11647;DHT22;5880;52.342;9.662;2022-12-13T14:46:04;1.40;66.70
11647;DHT22;5880;52.342;9.662;2022-12-13T14:48:46;1.40;66.80
11647;DHT22;5880;52.342;9.662;2022-12-13T14:51:30;1.30;66.70
11647;DHT22;5880;52.342;9.662;2022-12-13T14:53:59;1.20;66.50
11647;DHT22;5880;52.342;9.662;2022-12-13T14:56:27;1.20;66.50
11647;DHT22;5880;52.342;9.662;2022-12-13T14:58:56;1.20;66.60
11647;DHT22;5880;52.342;9.662;2022-12-13T15:01:37;1.20;66.60
11647;DHT22;5880;52.342;9.662;2022-12-13T15:04:27;1.10;66.50
11647;DHT22;5880;52.342;9.662;2022-12-13T15:07:01;1.10;66.60
11647;DHT22;5880;52.342;9.662;2022-12-13T15:09:41;1.10;66.60
11647;DHT22;5880;52.342;9.662;2022-12-13T15:12:14;1.00;66.60
11647;DHT22;5880;52.342;9.662;2022-12-13T15:14:45;1.00;66.60
11647;DHT22;5880;52.342;9.662;2022-12-13T15:17:26;0.90;66.60
11647;DHT22;5880;52.342;9.662;2022-12-13T15:19:55;0.90;66.60
11647;DHT22;5880;52.342;9.662;2022-12-13T15:22:21;0.90;66.60
11647;DHT22;5880;52.342;9.662;2022-12-13T15:24:48;0.80;66.50
11647;DHT22;5880;52.342;9.662;2022-12-13T15:27:19;0.80;66.60
11647;DHT22;5880;52.342;9.662;2022-12-13T15:29:48;0.80;66.60
11647;DHT22;5880;52.342;9.662;2022-12-13T15:32:17;0.80;66.60
11647;DHT22;5880;52.342;9.662;2022-12-13T15:34:46;0.80;66.60
11647;DHT22;5880;52.342;9.662;2022-12-13T15:37:18;0.70;66.60
11647;DHT22;5880;52.342;9.662;2022-12-13T15:39:45;0.70;66.60
11647;DHT22;5880;52.342;9.662;2022-12-13T15:42:22;0.70;66.60
11647;DHT22;5880;52.342;9.662;2022-12-13T15:44:56;0.70;66.60
11647;DHT22;5880;52.342;9.662;2022-12-13T15:47:24;0.70;66.60
11647;DHT22;5880;52.342;9.662;2022-12-13T15:49:53;0.60;66.50
11647;DHT22;5880;52.342;9.662;2022-12-13T15:57:51;0.50;66.50
11647;DHT22;5880;52.342;9.662;2022-12-13T16:00:26;0.50;66.50
11647;DHT22;5880;52.342;9.662;2022-12-13T16:03:10;0.50;66.50
11647;DHT22;5880;52.342;9.662;2022-12-13T16:05:46;0.40;66.40
11647;DHT22;5880;52.342;9.662;2022-12-13T16:08:35;0.40;66.50
11647;DHT22;5880;52.342;9.662;2022-12-13T16:11:04;0.40;66.40
11647;DHT22;5880;52.342;9.662;2022-12-13T16:13:34;0.40;66.50
11647;DHT22;5880;52.342;9.662;2022-12-13T16:18:55;0.30;66.40
11647;DHT22;5880;52.342;9.662;2022-12-13T16:21:22;0.30;66.40
11647;DHT22;5880;52.342;9.662;2022-12-13T16:23:49;0.30;66.40
11647;DHT22;5880;52.342;9.662;2022-12-13T16:26:24;0.30;66.50
11647;DHT22;5880;52.342;9.662;2022-12-13T16:28:53;0.20;66.40
11647;DHT22;5880;52.342;9.662;2022-12-13T16:31:22;0.20;66.40
11647;DHT22;5880;52.342;9.662;2022-12-13T16:33:49;0.20;66.50
11647;DHT22;5880;52.342;9.662;2022-12-13T16:36:16;0.20;66.50
11647;DHT22;5880;52.342;9.662;2022-12-13T16:38:42;0.10;66.40
11647;DHT22;5880;52.342;9.662;2022-12-13T16:41:08;0.10;66.40
11647;DHT22;5880;52.342;9.662;2022-12-13T16:43:37;0.10;66.40
11647;DHT22;5880;52.342;9.662;2022-12-13T16:46:10;0.10;66.40
11647;DHT22;5880;52.342;9.662;2022-12-13T16:48:37;0.10;67.20
11647;DHT22;5880;52.342;9.662;2022-12-13T16:51:03;0.10;66.40
11647;DHT22;5880;52.342;9.662;2022-12-13T16:53:30;0.00;66.30
11647;DHT22;5880;52.342;9.662;2022-12-13T16:55:57;0.00;66.30
11647;DHT22;5880;52.342;9.662;2022-12-13T16:58:22;0.00;66.30
11647;DHT22;5880;52.342;9.662;2022-12-13T17:00:50;0.00;66.40
11647;DHT22;5880;52.342;9.662;2022-12-13T17:03:16;0.00;66.50
11647;DHT22;5880;52.342;9.662;2022-12-13T17:05:43;0.00;66.50
11647;DHT22;5880;52.342;9.662;2022-12-13T17:08:11;-0.10;66.50
11647;DHT22;5880;52.342;9.662;2022-12-13T17:10:39;-0.10;66.50
11647;DHT22;5880;52.342;9.662;2022-12-13T17:13:05;-0.10;66.40
11647;DHT22;5880;52.342;9.662;2022-12-13T17:15:31;-0.10;66.40
11647;DHT22;5880;52.342;9.662;2022-12-13T17:17:57;-0.10;66.40
11647;DHT22;5880;52.342;9.662;2022-12-13T17:20:22;-0.20;66.20
11647;DHT22;5880;52.342;9.662;2022-12-13T17:22:49;-0.10;66.30
11647;DHT22;5880;52.342;9.662;2022-12-13T17:25:15;-0.20;66.20
11647;DHT22;5880;52.342;9.662;2022-12-13T17:27:41;-0.20;66.20
11647;DHT22;5880;52.342;9.662;2022-12-13T17:30:16;-0.20;66.20
11647;DHT22;5880;52.342;9.662;2022-12-13T17:32:43;-0.20;66.20
11647;DHT22;5880;52.342;9.662;2022-12-13T17:35:09;-0.20;66.20
11647;DHT22;5880;52.342;9.662;2022-12-13T17:37:36;-0.30;66.20
11647;DHT22;5880;52.342;9.662;2022-12-13T17:40:02;-0.30;66.20
11647;DHT22;5880;52.342;9.662;2022-12-13T17:42:31;-0.30;66.10
11647;DHT22;5880;52.342;9.662;2022-12-13T17:44:58;-0.30;66.20
11647;DHT22;5880;52.342;9.662;2022-12-13T17:47:24;-0.30;66.20
11647;DHT22;5880;52.342;9.662;2022-12-13T17:49:49;-0.30;66.20
11647;DHT22;5880;52.342;9.662;2022-12-13T17:52:15;-0.40;66.00
11647;DHT22;5880;52.342;9.662;2022-12-13T17:54:40;-0.40;66.00
11647;DHT22;5880;52.342;9.662;2022-12-13T17:57:06;-0.40;66.00
11647;DHT22;5880;52.342;9.662;2022-12-13T17:59:34;-0.40;66.00
11647;DHT22;5880;52.342;9.662;2022-12-13T18:02:04;-0.40;66.00
11647;DHT22;5880;52.342;9.662;2022-12-13T18:04:30;-0.40;66.10